sensor_id;sensor_type;location;lat;lon;timestamp;P1;durP1;ratioP1;P2;durP2;ratioP2
7021;SDS011;3552;42.664;23.406;2022-07-23T00:00:26;6.87;;;5.07;;
7021;SDS011;3552;42.664;23.406;2022-07-23T00:02:55;10.60;;;5.07;;
7021;SDS011;3552;42.664;23.406;2022-07-23T00:05:24;11.00;;;5.23;;
7021;SDS011;3552;42.664;23.406;2022-07-23T00:07:52;8.43;;;5.60;;
7021;SDS011;3552;42.664;23.406;2022-07-23T00:10:19;7.43;;;4.93;;
7021;SDS011;3552;42.664;23.406;2022-07-23T00:12:49;8.00;;;5.10;;
7021;SDS011;3552;42.664;23.406;2022-07-23T00:15:16;12.77;;;5.60;;
7021;SDS011;3552;42.664;23.406;2022-07-23T00:17:44;8.33;;;5.93;;
7021;SDS011;3552;42.664;23.406;2022-07-23T00:20:12;6.40;;;5.80;;
7021;SDS011;3552;42.664;23.406;2022-07-23T00:22:45;13.40;;;6.10;;
7021;SDS011;3552;42.664;23.406;2022-07-23T00:25:12;11.87;;;6.10;;
7021;SDS011;3552;42.664;23.406;2022-07-23T00:27:39;8.37;;;5.97;;
7021;SDS011;3552;42.664;23.406;2022-07-23T00:30:07;10.27;;;5.97;;
7021;SDS011;3552;42.664;23.406;2022-07-23T00:32:46;9.50;;;6.03;;
7021;SDS011;3552;42.664;23.406;2022-07-23T00:35:15;11.60;;;6.23;;
7021;SDS011;3552;42.664;23.406;2022-07-23T00:37:49;9.77;;;5.77;;
7021;SDS011;3552;42.664;23.406;2022-07-23T00:40:18;10.10;;;6.93;;
7021;SDS011;3552;42.664;23.406;2022-07-23T00:42:46;8.57;;;6.53;;
7021;SDS011;3552;42.664;23.406;2022-07-23T00:45:15;11.50;;;6.03;;
7021;SDS011;3552;42.664;23.406;2022-07-23T00:47:53;11.87;;;6.93;;
7021;SDS011;3552;42.664;23.406;2022-07-23T00:50:21;12.03;;;6.57;;
7021;SDS011;3552;42.664;23.406;2022-07-23T00:52:48;10.93;;;6.63;;
7021;SDS011;3552;42.664;23.406;2022-07-23T00:55:17;11.43;;;5.97;;
7021;SDS011;3552;42.664;23.406;2022-07-23T00:57:45;13.10;;;7.03;;
7021;SDS011;3552;42.664;23.406;2022-07-23T01:00:14;11.47;;;6.57;;
7021;SDS011;3552;42.664;23.406;2022-07-23T01:02:41;11.30;;;6.60;;
7021;SDS011;3552;42.664;23.406;2022-07-23T01:05:10;9.37;;;6.20;;
7021;SDS011;3552;42.664;23.406;2022-07-23T01:07:39;11.63;;;6.30;;
7021;SDS011;3552;42.664;23.406;2022-07-23T01:10:08;10.23;;;6.57;;
7021;SDS011;3552;42.664;23.406;2022-07-23T01:12:51;8.33;;;6.33;;
7021;SDS011;3552;42.664;23.406;2022-07-23T01:15:18;13.53;;;6.43;;
7021;SDS011;3552;42.664;23.406;2022-07-23T01:17:46;9.30;;;6.30;;
7021;SDS011;3552;42.664;23.406;2022-07-23T01:20:15;10.43;;;5.80;;
7021;SDS011;3552;42.664;23.406;2022-07-23T01:22:46;11.10;;;5.83;;
7021;SDS011;3552;42.664;23.406;2022-07-23T01:25:13;7.87;;;6.50;;
7021;SDS011;3552;42.664;23.406;2022-07-23T01:27:42;6.70;;;5.43;;
7021;SDS011;3552;42.664;23.406;2022-07-23T01:30:10;10.50;;;5.30;;
7021;SDS011;3552;42.664;23.406;2022-07-23T01:32:39;9.10;;;5.70;;
7021;SDS011;3552;42.664;23.406;2022-07-23T01:35:08;10.47;;;5.73;;
7021;SDS011;3552;42.664;23.406;2022-07-23T01:37:36;9.33;;;5.60;;
7021;SDS011;3552;42.664;23.406;2022-07-23T01:40:07;11.37;;;6.03;;
7021;SDS011;3552;42.664;23.406;2022-07-23T01:42:36;10.50;;;5.80;;
7021;SDS011;3552;42.664;23.406;2022-07-23T01:45:04;12.73;;;5.60;;
7021;SDS011;3552;42.664;23.406;2022-07-23T01:47:32;8.10;;;5.23;;
7021;SDS011;3552;42.664;23.406;2022-07-23T01:50:00;7.77;;;5.13;;
7021;SDS011;3552;42.664;23.406;2022-07-23T01:52:27;8.27;;;5.43;;
7021;SDS011;3552;42.664;23.406;2022-07-23T01:54:55;8.53;;;6.17;;
7021;SDS011;3552;42.664;23.406;2022-07-23T01:57:24;10.10;;;5.97;;
7021;SDS011;3552;42.664;23.406;2022-07-23T01:59:51;9.10;;;5.53;;
7021;SDS011;3552;42.664;23.406;2022-07-23T02:02:18;11.47;;;5.33;;
7021;SDS011;3552;42.664;23.406;2022-07-23T02:04:45;12.17;;;5.67;;
7021;SDS011;3552;42.664;23.406;2022-07-23T02:07:12;11.07;;;5.67;;
7021;SDS011;3552;42.664;23.406;2022-07-23T02:09:41;15.40;;;5.97;;
7021;SDS011;3552;42.664;23.406;2022-07-23T02:12:09;10.27;;;5.60;;
7021;SDS011;3552;42.664;23.406;2022-07-23T02:14:37;10.40;;;5.93;;
7021;SDS011;3552;42.664;23.406;2022-07-23T02:17:04;7.07;;;5.70;;
7021;SDS011;3552;42.664;23.406;2022-07-23T02:19:31;12.23;;;5.83;;
7021;SDS011;3552;42.664;23.406;2022-07-23T02:21:59;8.23;;;5.67;;
7021;SDS011;3552;42.664;23.406;2022-07-23T02:24:26;7.97;;;5.53;;
7021;SDS011;3552;42.664;23.406;2022-07-23T02:26:53;5.60;;;4.97;;
7021;SDS011;3552;42.664;23.406;2022-07-23T02:29:22;8.53;;;5.70;;
7021;SDS011;3552;42.664;23.406;2022-07-23T02:31:52;8.57;;;5.20;;
7021;SDS011;3552;42.664;23.406;2022-07-23T02:34:19;7.63;;;5.37;;
7021;SDS011;3552;42.664;23.406;2022-07-23T02:36:46;10.07;;;5.90;;
7021;SDS011;3552;42.664;23.406;2022-07-23T02:39:14;8.63;;;5.40;;
7021;SDS011;3552;42.664;23.406;2022-07-23T02:41:42;7.90;;;5.50;;
7021;SDS011;3552;42.664;23.406;2022-07-23T02:44:10;15.60;;;6.07;;
7021;SDS011;3552;42.664;23.406;2022-07-23T02:46:41;13.80;;;6.00;;
7021;SDS011;3552;42.664;23.406;2022-07-23T02:49:11;12.87;;;6.07;;
7021;SDS011;3552;42.664;23.406;2022-07-23T02:51:39;8.27;;;5.90;;
7021;SDS011;3552;42.664;23.406;2022-07-23T02:54:08;12.00;;;5.93;;
7021;SDS011;3552;42.664;23.406;2022-07-23T02:56:36;14.00;;;6.33;;
7021;SDS011;3552;42.664;23.406;2022-07-23T02:59:04;10.50;;;5.53;;
7021;SDS011;3552;42.664;23.406;2022-07-23T03:01:31;19.53;;;5.90;;
7021;SDS011;3552;42.664;23.406;2022-07-23T03:03:59;13.10;;;5.67;;
7021;SDS011;3552;42.664;23.406;2022-07-23T03:06:28;12.20;;;6.63;;
7021;SDS011;3552;42.664;23.406;2022-07-23T03:08:55;9.50;;;5.83;;
7021;SDS011;3552;42.664;23.406;2022-07-23T03:11:24;8.57;;;5.77;;
7021;SDS011;3552;42.664;23.406;2022-07-23T03:13:51;10.70;;;6.30;;
7021;SDS011;3552;42.664;23.406;2022-07-23T03:16:20;11.37;;;6.07;;
7021;SDS011;3552;42.664;23.406;2022-07-23T03:18:51;17.37;;;6.60;;
7021;SDS011;3552;42.664;23.406;2022-07-23T03:21:20;23.83;;;8.13;;
7021;SDS011;3552;42.664;23.406;2022-07-23T03:23:49;17.10;;;7.60;;
7021;SDS011;3552;42.664;23.406;2022-07-23T03:26:16;16.93;;;7.50;;
7021;SDS011;3552;42.664;23.406;2022-07-23T03:28:43;15.00;;;7.20;;
7021;SDS011;3552;42.664;23.406;2022-07-23T03:31:12;13.27;;;7.90;;
7021;SDS011;3552;42.664;23.406;2022-07-23T03:33:39;11.83;;;7.17;;
7021;SDS011;3552;42.664;23.406;2022-07-23T03:36:08;12.73;;;7.57;;
7021;SDS011;3552;42.664;23.406;2022-07-23T03:38:36;17.27;;;7.90;;
7021;SDS011;3552;42.664;23.406;2022-07-23T03:41:06;15.97;;;7.70;;
7021;SDS011;3552;42.664;23.406;2022-07-23T03:43:35;13.80;;;7.33;;
7021;SDS011;3552;42.664;23.406;2022-07-23T03:46:02;17.27;;;7.73;;
7021;SDS011;3552;42.664;23.406;2022-07-23T03:48:31;14.30;;;7.50;;
7021;SDS011;3552;42.664;23.406;2022-07-23T03:50:58;24.07;;;7.67;;
7021;SDS011;3552;42.664;23.406;2022-07-23T03:53:25;17.87;;;7.80;;
7021;SDS011;3552;42.664;23.406;2022-07-23T03:55:55;21.17;;;7.97;;
7021;SDS011;3552;42.664;23.406;2022-07-23T03:58:24;23.53;;;8.40;;
7021;SDS011;3552;42.664;23.406;2022-07-23T04:00:52;22.50;;;8.47;;
7021;SDS011;3552;42.664;23.406;2022-07-23T04:03:22;17.20;;;8.03;;
7021;SDS011;3552;42.664;23.406;2022-07-23T04:05:51;24.53;;;8.07;;
7021;SDS011;3552;42.664;23.406;2022-07-23T04:08:20;18.63;;;7.37;;
7021;SDS011;3552;42.664;23.406;2022-07-23T04:10:49;18.17;;;7.67;;
7021;SDS011;3552;42.664;23.406;2022-07-23T04:13:18;19.83;;;7.13;;
7021;SDS011;3552;42.664;23.406;2022-07-23T04:15:48;17.90;;;7.70;;
7021;SDS011;3552;42.664;23.406;2022-07-23T04:18:15;12.63;;;7.23;;
7021;SDS011;3552;42.664;23.406;2022-07-23T04:20:43;16.00;;;7.53;;
7021;SDS011;3552;42.664;23.406;2022-07-23T04:23:11;13.63;;;7.30;;
7021;SDS011;3552;42.664;23.406;2022-07-23T04:25:38;12.00;;;6.43;;
7021;SDS011;3552;42.664;23.406;2022-07-23T04:28:05;13.47;;;7.23;;
7021;SDS011;3552;42.664;23.406;2022-07-23T04:30:34;11.73;;;6.60;;
7021;SDS011;3552;42.664;23.406;2022-07-23T04:33:04;19.20;;;6.37;;
7021;SDS011;3552;42.664;23.406;2022-07-23T04:35:32;9.70;;;6.37;;
7021;SDS011;3552;42.664;23.406;2022-07-23T04:38:02;17.87;;;6.63;;
7021;SDS011;3552;42.664;23.406;2022-07-23T04:40:31;15.57;;;7.23;;
7021;SDS011;3552;42.664;23.406;2022-07-23T04:43:02;14.77;;;7.50;;
7021;SDS011;3552;42.664;23.406;2022-07-23T04:45:30;21.83;;;8.07;;
7021;SDS011;3552;42.664;23.406;2022-07-23T04:47:57;19.33;;;7.50;;
7021;SDS011;3552;42.664;23.406;2022-07-23T04:50:27;23.87;;;7.40;;
7021;SDS011;3552;42.664;23.406;2022-07-23T04:52:54;19.83;;;7.17;;
7021;SDS011;3552;42.664;23.406;2022-07-23T04:55:21;15.03;;;7.17;;
7021;SDS011;3552;42.664;23.406;2022-07-23T04:57:49;20.03;;;7.27;;
7021;SDS011;3552;42.664;23.406;2022-07-23T05:00:19;11.33;;;7.10;;
7021;SDS011;3552;42.664;23.406;2022-07-23T05:02:46;18.47;;;7.70;;
7021;SDS011;3552;42.664;23.406;2022-07-23T05:05:14;18.97;;;8.17;;
7021;SDS011;3552;42.664;23.406;2022-07-23T05:07:43;13.03;;;8.20;;
7021;SDS011;3552;42.664;23.406;2022-07-23T05:10:15;14.30;;;7.77;;
7021;SDS011;3552;42.664;23.406;2022-07-23T05:12:44;11.73;;;7.20;;
7021;SDS011;3552;42.664;23.406;2022-07-23T05:15:14;19.40;;;7.87;;
7021;SDS011;3552;42.664;23.406;2022-07-23T05:17:44;17.33;;;8.30;;
7021;SDS011;3552;42.664;23.406;2022-07-23T05:20:13;15.53;;;8.33;;
7021;SDS011;3552;42.664;23.406;2022-07-23T05:22:40;19.30;;;9.03;;
7021;SDS011;3552;42.664;23.406;2022-07-23T05:25:09;18.03;;;8.47;;
7021;SDS011;3552;42.664;23.406;2022-07-23T05:27:36;15.63;;;8.53;;
7021;SDS011;3552;42.664;23.406;2022-07-23T05:30:04;17.43;;;8.50;;
7021;SDS011;3552;42.664;23.406;2022-07-23T05:32:36;18.93;;;9.37;;
7021;SDS011;3552;42.664;23.406;2022-07-23T05:35:03;17.60;;;8.53;;
7021;SDS011;3552;42.664;23.406;2022-07-23T05:37:31;14.60;;;8.07;;
7021;SDS011;3552;42.664;23.406;2022-07-23T05:40:01;13.50;;;7.50;;
7021;SDS011;3552;42.664;23.406;2022-07-23T05:42:31;14.30;;;8.33;;
7021;SDS011;3552;42.664;23.406;2022-07-23T05:44:58;20.10;;;7.90;;
7021;SDS011;3552;42.664;23.406;2022-07-23T05:47:26;13.13;;;6.57;;
7021;SDS011;3552;42.664;23.406;2022-07-23T05:49:54;17.17;;;7.00;;
7021;SDS011;3552;42.664;23.406;2022-07-23T05:52:22;11.13;;;6.40;;
7021;SDS011;3552;42.664;23.406;2022-07-23T05:54:49;14.60;;;6.87;;
7021;SDS011;3552;42.664;23.406;2022-07-23T05:57:20;13.97;;;7.07;;
7021;SDS011;3552;42.664;23.406;2022-07-23T05:59:51;17.53;;;7.23;;
7021;SDS011;3552;42.664;23.406;2022-07-23T06:02:36;19.23;;;7.63;;
7021;SDS011;3552;42.664;23.406;2022-07-23T06:05:06;16.63;;;7.10;;
7021;SDS011;3552;42.664;23.406;2022-07-23T06:07:34;13.53;;;7.07;;
7021;SDS011;3552;42.664;23.406;2022-07-23T06:10:16;11.17;;;7.00;;
7021;SDS011;3552;42.664;23.406;2022-07-23T06:12:46;16.27;;;7.40;;
7021;SDS011;3552;42.664;23.406;2022-07-23T06:15:14;15.40;;;7.23;;
7021;SDS011;3552;42.664;23.406;2022-07-23T06:17:42;15.00;;;8.30;;
7021;SDS011;3552;42.664;23.406;2022-07-23T06:20:10;14.87;;;8.17;;
7021;SDS011;3552;42.664;23.406;2022-07-23T06:22:38;15.87;;;7.40;;
7021;SDS011;3552;42.664;23.406;2022-07-23T06:25:06;12.93;;;7.27;;
7021;SDS011;3552;42.664;23.406;2022-07-23T06:27:33;13.60;;;7.40;;
7021;SDS011;3552;42.664;23.406;2022-07-23T06:30:03;11.47;;;7.20;;
7021;SDS011;3552;42.664;23.406;2022-07-23T06:32:30;12.43;;;7.50;;
7021;SDS011;3552;42.664;23.406;2022-07-23T06:34:59;11.20;;;7.20;;
7021;SDS011;3552;42.664;23.406;2022-07-23T06:37:27;11.57;;;7.40;;
7021;SDS011;3552;42.664;23.406;2022-07-23T06:39:56;21.70;;;7.60;;
7021;SDS011;3552;42.664;23.406;2022-07-23T06:42:24;21.90;;;7.73;;
7021;SDS011;3552;42.664;23.406;2022-07-23T06:44:51;15.27;;;7.20;;
7021;SDS011;3552;42.664;23.406;2022-07-23T06:47:31;12.50;;;8.20;;
7021;SDS011;3552;42.664;23.406;2022-07-23T06:49:58;15.30;;;8.37;;
7021;SDS011;3552;42.664;23.406;2022-07-23T06:52:25;19.47;;;7.63;;
7021;SDS011;3552;42.664;23.406;2022-07-23T06:54:56;9.63;;;7.10;;
7021;SDS011;3552;42.664;23.406;2022-07-23T06:57:27;15.20;;;7.70;;
7021;SDS011;3552;42.664;23.406;2022-07-23T07:00:05;15.37;;;7.67;;
7021;SDS011;3552;42.664;23.406;2022-07-23T07:02:38;24.40;;;7.83;;
7021;SDS011;3552;42.664;23.406;2022-07-23T07:05:08;17.87;;;8.00;;
7021;SDS011;3552;42.664;23.406;2022-07-23T07:07:36;17.60;;;7.67;;
7021;SDS011;3552;42.664;23.406;2022-07-23T07:10:05;11.27;;;7.00;;
7021;SDS011;3552;42.664;23.406;2022-07-23T07:12:33;24.23;;;9.83;;
7021;SDS011;3552;42.664;23.406;2022-07-23T07:15:00;17.63;;;7.33;;
7021;SDS011;3552;42.664;23.406;2022-07-23T07:17:29;19.60;;;8.30;;
7021;SDS011;3552;42.664;23.406;2022-07-23T07:19:58;21.67;;;8.70;;
7021;SDS011;3552;42.664;23.406;2022-07-23T07:22:27;19.07;;;7.90;;
7021;SDS011;3552;42.664;23.406;2022-07-23T07:24:55;21.00;;;7.77;;
7021;SDS011;3552;42.664;23.406;2022-07-23T07:27:23;17.43;;;7.63;;
7021;SDS011;3552;42.664;23.406;2022-07-23T07:29:52;12.53;;;6.87;;
7021;SDS011;3552;42.664;23.406;2022-07-23T07:32:20;14.57;;;6.80;;
7021;SDS011;3552;42.664;23.406;2022-07-23T07:34:49;12.53;;;7.40;;
7021;SDS011;3552;42.664;23.406;2022-07-23T07:37:18;20.03;;;8.73;;
7021;SDS011;3552;42.664;23.406;2022-07-23T07:39:45;24.17;;;8.93;;
7021;SDS011;3552;42.664;23.406;2022-07-23T07:42:15;27.33;;;12.97;;
7021;SDS011;3552;42.664;23.406;2022-07-23T07:44:44;29.33;;;13.67;;
7021;SDS011;3552;42.664;23.406;2022-07-23T07:47:12;29.13;;;14.73;;
7021;SDS011;3552;42.664;23.406;2022-07-23T07:49:40;26.10;;;13.57;;
7021;SDS011;3552;42.664;23.406;2022-07-23T07:52:08;25.40;;;15.07;;
7021;SDS011;3552;42.664;23.406;2022-07-23T07:54:37;29.47;;;15.50;;
7021;SDS011;3552;42.664;23.406;2022-07-23T07:57:05;31.63;;;13.33;;
7021;SDS011;3552;42.664;23.406;2022-07-23T07:59:34;27.70;;;13.63;;
7021;SDS011;3552;42.664;23.406;2022-07-23T08:02:02;21.17;;;12.40;;
7021;SDS011;3552;42.664;23.406;2022-07-23T08:04:33;21.73;;;12.17;;
7021;SDS011;3552;42.664;23.406;2022-07-23T08:07:00;23.97;;;11.83;;
7021;SDS011;3552;42.664;23.406;2022-07-23T08:09:28;31.33;;;12.97;;
7021;SDS011;3552;42.664;23.406;2022-07-23T08:12:05;22.33;;;12.40;;
7021;SDS011;3552;42.664;23.406;2022-07-23T08:14:34;20.67;;;11.57;;
7021;SDS011;3552;42.664;23.406;2022-07-23T08:17:02;21.97;;;10.83;;
7021;SDS011;3552;42.664;23.406;2022-07-23T08:19:30;22.93;;;9.57;;
7021;SDS011;3552;42.664;23.406;2022-07-23T08:21:59;21.80;;;8.70;;
7021;SDS011;3552;42.664;23.406;2022-07-23T08:24:26;18.20;;;8.50;;
7021;SDS011;3552;42.664;23.406;2022-07-23T08:26:53;20.63;;;9.90;;
7021;SDS011;3552;42.664;23.406;2022-07-23T08:29:27;15.63;;;8.13;;
7021;SDS011;3552;42.664;23.406;2022-07-23T08:31:55;21.13;;;8.33;;
7021;SDS011;3552;42.664;23.406;2022-07-23T08:34:22;15.37;;;8.50;;
7021;SDS011;3552;42.664;23.406;2022-07-23T08:36:50;22.83;;;8.50;;
7021;SDS011;3552;42.664;23.406;2022-07-23T08:39:19;13.10;;;8.07;;
7021;SDS011;3552;42.664;23.406;2022-07-23T08:41:46;28.13;;;8.10;;
7021;SDS011;3552;42.664;23.406;2022-07-23T08:44:15;12.90;;;8.03;;
7021;SDS011;3552;42.664;23.406;2022-07-23T08:46:45;19.33;;;8.23;;
7021;SDS011;3552;42.664;23.406;2022-07-23T08:49:13;21.97;;;7.40;;
7021;SDS011;3552;42.664;23.406;2022-07-23T08:51:40;12.43;;;7.70;;
7021;SDS011;3552;42.664;23.406;2022-07-23T08:54:08;18.97;;;7.30;;
7021;SDS011;3552;42.664;23.406;2022-07-23T08:56:36;19.83;;;7.33;;
7021;SDS011;3552;42.664;23.406;2022-07-23T08:59:04;12.13;;;7.40;;
7021;SDS011;3552;42.664;23.406;2022-07-23T09:01:33;15.63;;;7.43;;
7021;SDS011;3552;42.664;23.406;2022-07-23T09:04:02;15.40;;;7.50;;
7021;SDS011;3552;42.664;23.406;2022-07-23T09:06:30;11.77;;;7.50;;
7021;SDS011;3552;42.664;23.406;2022-07-23T09:08:58;15.83;;;7.37;;
7021;SDS011;3552;42.664;23.406;2022-07-23T09:11:45;21.03;;;7.00;;
7021;SDS011;3552;42.664;23.406;2022-07-23T09:14:15;18.70;;;7.63;;
7021;SDS011;3552;42.664;23.406;2022-07-23T09:17:08;10.87;;;6.80;;
7021;SDS011;3552;42.664;23.406;2022-07-23T09:19:38;13.10;;;7.37;;
7021;SDS011;3552;42.664;23.406;2022-07-23T09:22:22;15.90;;;7.70;;
7021;SDS011;3552;42.664;23.406;2022-07-23T09:25:04;21.73;;;7.30;;
7021;SDS011;3552;42.664;23.406;2022-07-23T09:27:46;17.30;;;7.30;;
7021;SDS011;3552;42.664;23.406;2022-07-23T09:30:18;13.47;;;7.03;;
7021;SDS011;3552;42.664;23.406;2022-07-23T09:38:23;20.23;;;7.97;;
7021;SDS011;3552;42.664;23.406;2022-07-23T09:41:06;14.43;;;7.17;;
7021;SDS011;3552;42.664;23.406;2022-07-23T09:43:33;11.50;;;7.27;;
7021;SDS011;3552;42.664;23.406;2022-07-23T09:46:20;12.10;;;7.00;;
7021;SDS011;3552;42.664;23.406;2022-07-23T09:48:49;12.03;;;6.90;;
7021;SDS011;3552;42.664;23.406;2022-07-23T09:51:19;10.53;;;6.70;;
7021;SDS011;3552;42.664;23.406;2022-07-23T09:53:51;17.23;;;6.87;;
7021;SDS011;3552;42.664;23.406;2022-07-23T09:56:20;13.00;;;6.57;;
7021;SDS011;3552;42.664;23.406;2022-07-23T09:58:48;13.03;;;6.43;;
7021;SDS011;3552;42.664;23.406;2022-07-23T10:01:17;11.87;;;6.00;;
7021;SDS011;3552;42.664;23.406;2022-07-23T10:03:46;8.83;;;6.10;;
7021;SDS011;3552;42.664;23.406;2022-07-23T10:06:14;9.60;;;6.43;;
7021;SDS011;3552;42.664;23.406;2022-07-23T10:08:42;11.67;;;6.50;;
7021;SDS011;3552;42.664;23.406;2022-07-23T10:11:13;12.93;;;6.83;;
7021;SDS011;3552;42.664;23.406;2022-07-23T10:13:44;9.53;;;6.20;;
7021;SDS011;3552;42.664;23.406;2022-07-23T10:16:20;9.67;;;6.37;;
7021;SDS011;3552;42.664;23.406;2022-07-23T10:18:54;8.80;;;5.97;;
7021;SDS011;3552;42.664;23.406;2022-07-23T10:21:25;7.87;;;5.30;;
7021;SDS011;3552;42.664;23.406;2022-07-23T10:24:04;11.53;;;5.40;;
7021;SDS011;3552;42.664;23.406;2022-07-23T10:26:45;11.23;;;6.30;;
7021;SDS011;3552;42.664;23.406;2022-07-23T10:29:22;10.43;;;5.63;;
7021;SDS011;3552;42.664;23.406;2022-07-23T10:32:05;10.20;;;5.67;;
7021;SDS011;3552;42.664;23.406;2022-07-23T10:34:40;9.80;;;5.30;;
7021;SDS011;3552;42.664;23.406;2022-07-23T10:37:16;12.20;;;5.77;;
7021;SDS011;3552;42.664;23.406;2022-07-23T10:39:50;7.90;;;5.37;;
7021;SDS011;3552;42.664;23.406;2022-07-23T10:42:35;12.13;;;5.70;;
7021;SDS011;3552;42.664;23.406;2022-07-23T10:47:49;7.73;;;6.07;;
7021;SDS011;3552;42.664;23.406;2022-07-23T10:50:21;12.93;;;6.60;;
7021;SDS011;3552;42.664;23.406;2022-07-23T10:53:09;10.83;;;6.20;;
7021;SDS011;3552;42.664;23.406;2022-07-23T10:55:44;12.27;;;6.47;;
7021;SDS011;3552;42.664;23.406;2022-07-23T10:58:17;12.20;;;5.97;;
7021;SDS011;3552;42.664;23.406;2022-07-23T11:00:48;8.87;;;5.77;;
7021;SDS011;3552;42.664;23.406;2022-07-23T11:03:29;12.90;;;6.10;;
7021;SDS011;3552;42.664;23.406;2022-07-23T11:06:01;13.50;;;5.87;;
7021;SDS011;3552;42.664;23.406;2022-07-23T11:08:30;13.60;;;6.33;;
7021;SDS011;3552;42.664;23.406;2022-07-23T11:11:10;12.03;;;5.73;;
7021;SDS011;3552;42.664;23.406;2022-07-23T11:13:39;16.23;;;6.30;;
7021;SDS011;3552;42.664;23.406;2022-07-23T11:16:21;10.33;;;6.30;;
7021;SDS011;3552;42.664;23.406;2022-07-23T11:19:03;15.10;;;6.20;;
7021;SDS011;3552;42.664;23.406;2022-07-23T11:21:49;12.40;;;6.07;;
7021;SDS011;3552;42.664;23.406;2022-07-23T11:24:17;10.97;;;6.00;;
7021;SDS011;3552;42.664;23.406;2022-07-23T11:26:48;12.57;;;6.17;;
7021;SDS011;3552;42.664;23.406;2022-07-23T11:32:18;15.27;;;6.63;;
7021;SDS011;3552;42.664;23.406;2022-07-23T11:35:18;11.53;;;5.43;;
7021;SDS011;3552;42.664;23.406;2022-07-23T11:37:51;12.87;;;5.67;;
7021;SDS011;3552;42.664;23.406;2022-07-23T11:40:23;14.83;;;6.07;;
7021;SDS011;3552;42.664;23.406;2022-07-23T11:42:58;12.80;;;6.07;;
7021;SDS011;3552;42.664;23.406;2022-07-23T11:45:30;14.63;;;6.13;;
7021;SDS011;3552;42.664;23.406;2022-07-23T11:48:00;16.77;;;6.80;;
7021;SDS011;3552;42.664;23.406;2022-07-23T11:50:27;18.17;;;6.40;;
7021;SDS011;3552;42.664;23.406;2022-07-23T11:52:54;12.00;;;6.03;;
7021;SDS011;3552;42.664;23.406;2022-07-23T11:55:23;14.50;;;5.93;;
7021;SDS011;3552;42.664;23.406;2022-07-23T11:57:55;18.30;;;5.80;;
7021;SDS011;3552;42.664;23.406;2022-07-23T12:00:23;21.25;;;5.88;;
7021;SDS011;3552;42.664;23.406;2022-07-23T12:02:52;12.50;;;5.60;;
7021;SDS011;3552;42.664;23.406;2022-07-23T12:05:22;18.88;;;6.60;;
7021;SDS011;3552;42.664;23.406;2022-07-23T12:07:51;11.13;;;5.68;;
7021;SDS011;3552;42.664;23.406;2022-07-23T12:10:20;19.13;;;6.30;;
7021;SDS011;3552;42.664;23.406;2022-07-23T12:12:49;19.00;;;6.22;;
7021;SDS011;3552;42.664;23.406;2022-07-23T12:15:19;11.38;;;5.28;;
7021;SDS011;3552;42.664;23.406;2022-07-23T12:17:48;14.68;;;6.43;;
7021;SDS011;3552;42.664;23.406;2022-07-23T12:20:17;17.20;;;6.10;;
7021;SDS011;3552;42.664;23.406;2022-07-23T12:22:47;13.05;;;6.40;;
7021;SDS011;3552;42.664;23.406;2022-07-23T12:25:15;17.30;;;7.03;;
7021;SDS011;3552;42.664;23.406;2022-07-23T12:27:45;14.80;;;6.07;;
7021;SDS011;3552;42.664;23.406;2022-07-23T12:30:22;13.55;;;6.78;;
7021;SDS011;3552;42.664;23.406;2022-07-23T12:32:52;15.38;;;6.40;;
7021;SDS011;3552;42.664;23.406;2022-07-23T12:35:21;12.67;;;6.13;;
7021;SDS011;3552;42.664;23.406;2022-07-23T12:37:50;16.83;;;6.13;;
7021;SDS011;3552;42.664;23.406;2022-07-23T12:40:27;18.67;;;5.67;;
7021;SDS011;3552;42.664;23.406;2022-07-23T12:42:56;18.13;;;6.50;;
7021;SDS011;3552;42.664;23.406;2022-07-23T12:45:27;11.43;;;5.57;;
7021;SDS011;3552;42.664;23.406;2022-07-23T12:48:08;17.55;;;6.57;;
7021;SDS011;3552;42.664;23.406;2022-07-23T12:50:44;17.20;;;5.93;;
7021;SDS011;3552;42.664;23.406;2022-07-23T12:53:16;16.45;;;6.72;;
7021;SDS011;3552;42.664;23.406;2022-07-23T12:55:46;18.33;;;8.73;;
7021;SDS011;3552;42.664;23.406;2022-07-23T12:58:15;15.55;;;7.53;;
7021;SDS011;3552;42.664;23.406;2022-07-23T13:03:36;15.77;;;6.65;;
7021;SDS011;3552;42.664;23.406;2022-07-23T13:06:32;15.40;;;7.13;;
7021;SDS011;3552;42.664;23.406;2022-07-23T13:09:02;15.77;;;6.88;;
7021;SDS011;3552;42.664;23.406;2022-07-23T13:11:31;16.85;;;6.25;;
7021;SDS011;3552;42.664;23.406;2022-07-23T13:13:59;14.68;;;5.95;;
7021;SDS011;3552;42.664;23.406;2022-07-23T13:16:28;14.77;;;5.72;;
7021;SDS011;3552;42.664;23.406;2022-07-23T13:18:55;17.55;;;7.10;;
7021;SDS011;3552;42.664;23.406;2022-07-23T13:21:23;14.50;;;5.63;;
7021;SDS011;3552;42.664;23.406;2022-07-23T13:23:50;16.92;;;6.05;;
7021;SDS011;3552;42.664;23.406;2022-07-23T13:26:17;17.58;;;6.68;;
7021;SDS011;3552;42.664;23.406;2022-07-23T13:28:44;13.50;;;6.47;;
7021;SDS011;3552;42.664;23.406;2022-07-23T13:31:12;11.85;;;6.03;;
7021;SDS011;3552;42.664;23.406;2022-07-23T13:33:42;13.38;;;6.13;;
7021;SDS011;3552;42.664;23.406;2022-07-23T13:36:09;18.05;;;6.75;;
7021;SDS011;3552;42.664;23.406;2022-07-23T13:38:36;15.68;;;6.10;;
7021;SDS011;3552;42.664;23.406;2022-07-23T13:41:04;14.88;;;5.85;;
7021;SDS011;3552;42.664;23.406;2022-07-23T13:43:31;13.30;;;5.43;;
7021;SDS011;3552;42.664;23.406;2022-07-23T13:45:59;15.93;;;6.00;;
7021;SDS011;3552;42.664;23.406;2022-07-23T13:48:27;15.70;;;6.00;;
7021;SDS011;3552;42.664;23.406;2022-07-23T13:50:58;10.23;;;5.63;;
7021;SDS011;3552;42.664;23.406;2022-07-23T13:53:26;16.95;;;5.78;;
7021;SDS011;3552;42.664;23.406;2022-07-23T13:55:53;13.15;;;5.85;;
7021;SDS011;3552;42.664;23.406;2022-07-23T13:58:21;12.43;;;5.50;;
7021;SDS011;3552;42.664;23.406;2022-07-23T14:00:50;11.10;;;5.60;;
7021;SDS011;3552;42.664;23.406;2022-07-23T14:03:19;13.52;;;5.85;;
7021;SDS011;3552;42.664;23.406;2022-07-23T14:05:50;10.80;;;6.00;;
7021;SDS011;3552;42.664;23.406;2022-07-23T14:08:29;15.27;;;5.85;;
7021;SDS011;3552;42.664;23.406;2022-07-23T14:10:56;13.00;;;5.22;;
7021;SDS011;3552;42.664;23.406;2022-07-23T14:13:24;14.45;;;5.78;;
7021;SDS011;3552;42.664;23.406;2022-07-23T14:15:55;14.55;;;5.47;;
7021;SDS011;3552;42.664;23.406;2022-07-23T14:18:22;17.50;;;6.53;;
7021;SDS011;3552;42.664;23.406;2022-07-23T14:20:52;15.00;;;5.55;;
7021;SDS011;3552;42.664;23.406;2022-07-23T14:23:19;11.73;;;5.57;;
7021;SDS011;3552;42.664;23.406;2022-07-23T14:25:48;13.55;;;5.78;;
7021;SDS011;3552;42.664;23.406;2022-07-23T14:28:17;15.00;;;5.30;;
7021;SDS011;3552;42.664;23.406;2022-07-23T14:30:45;20.27;;;5.53;;
7021;SDS011;3552;42.664;23.406;2022-07-23T14:33:14;18.05;;;5.55;;
7021;SDS011;3552;42.664;23.406;2022-07-23T14:35:44;10.80;;;5.15;;
7021;SDS011;3552;42.664;23.406;2022-07-23T14:38:15;11.65;;;5.68;;
7021;SDS011;3552;42.664;23.406;2022-07-23T14:40:42;18.23;;;5.80;;
7021;SDS011;3552;42.664;23.406;2022-07-23T14:43:15;20.20;;;6.13;;
7021;SDS011;3552;42.664;23.406;2022-07-23T14:45:46;15.48;;;5.50;;
7021;SDS011;3552;42.664;23.406;2022-07-23T14:48:15;13.73;;;5.25;;
7021;SDS011;3552;42.664;23.406;2022-07-23T14:50:45;13.18;;;5.88;;
7021;SDS011;3552;42.664;23.406;2022-07-23T14:53:13;14.82;;;5.80;;
7021;SDS011;3552;42.664;23.406;2022-07-23T14:55:43;14.85;;;6.35;;
7021;SDS011;3552;42.664;23.406;2022-07-23T14:58:15;17.13;;;6.03;;
7021;SDS011;3552;42.664;23.406;2022-07-23T15:00:43;11.48;;;5.63;;
7021;SDS011;3552;42.664;23.406;2022-07-23T15:03:12;15.50;;;6.50;;
7021;SDS011;3552;42.664;23.406;2022-07-23T15:05:40;18.07;;;6.57;;
7021;SDS011;3552;42.664;23.406;2022-07-23T15:08:11;22.70;;;6.27;;
7021;SDS011;3552;42.664;23.406;2022-07-23T15:10:39;15.40;;;5.80;;
7021;SDS011;3552;42.664;23.406;2022-07-23T15:16:09;15.37;;;5.93;;
7021;SDS011;3552;42.664;23.406;2022-07-23T15:18:45;12.53;;;6.07;;
7021;SDS011;3552;42.664;23.406;2022-07-23T15:21:15;16.23;;;6.30;;